createdAt,value
2022-12-08T00:01:33.398Z,99680.91
2022-12-08T00:04:04.033Z,99677.28
2022-12-08T00:07:01.174Z,99678.50
2022-12-08T00:09:38.187Z,99677.34
2022-12-08T00:12:16.635Z,99685.84
2022-12-08T00:14:46.350Z,99678.44
2022-12-08T00:17:16.384Z,99676.25
2022-12-08T00:19:43.970Z,99679.44
2022-12-08T00:22:12.870Z,99676.97
2022-12-08T00:24:41.822Z,99672.44
2022-12-08T00:27:11.114Z,99678.31
2022-12-08T00:29:38.889Z,99676.78
2022-12-08T00:32:08.629Z,99679.44
2022-12-08T00:34:35.921Z,99680.81
2022-12-08T00:37:03.678Z,99689.19
2022-12-08T00:39:32.065Z,99678.75
2022-12-08T00:42:14.600Z,99676.59
2022-12-08T00:44:44.805Z,99681.09
2022-12-08T00:47:13.923Z,99692.50
2022-12-08T00:49:41.631Z,99700.16
2022-12-08T00:52:09.450Z,99697.81
2022-12-08T00:54:36.825Z,99694.34
2022-12-08T00:57:04.447Z,99692.00
2022-12-08T00:59:31.870Z,99691.84
2022-12-08T01:02:00.292Z,99687.00
2022-12-08T01:04:27.827Z,99694.38
2022-12-08T01:06:55.498Z,99691.19
2022-12-08T01:09:23.924Z,99688.19
2022-12-08T01:11:54.244Z,99686.53
2022-12-08T01:14:21.970Z,99681.50
2022-12-08T01:16:49.881Z,99690.56
2022-12-08T01:19:18.013Z,99690.22
2022-12-08T01:21:46.413Z,99671.47
2022-12-08T01:24:20.490Z,99671.13
2022-12-08T01:26:50.501Z,99672.81
2022-12-08T01:29:18.090Z,99677.34
2022-12-08T01:31:47.071Z,99671.13
2022-12-08T01:34:14.589Z,99652.72
2022-12-08T01:36:44.382Z,99673.63
2022-12-08T01:39:16.969Z,99671.81
2022-12-08T01:41:46.423Z,99677.66
2022-12-08T01:44:13.741Z,99673.97
2022-12-08T01:46:46.117Z,99672.97
2022-12-08T01:49:23.192Z,99657.09
2022-12-08T01:52:10.145Z,99656.56
2022-12-08T01:55:06.149Z,99648.53
2022-12-08T01:57:45.369Z,99649.69
2022-12-08T02:00:16.778Z,99646.00
2022-12-08T02:02:54.487Z,99640.47
2022-12-08T02:05:25.279Z,99649.97
2022-12-08T02:07:55.872Z,99644.31
2022-12-08T02:10:24.608Z,99648.50
2022-12-08T02:12:54.928Z,99652.03
2022-12-08T02:15:50.562Z,99649.69
2022-12-08T02:18:33.026Z,99646.84
2022-12-08T02:21:17.916Z,99634.28
2022-12-08T02:24:07.610Z,99638.28
2022-12-08T02:27:03.933Z,99632.94
2022-12-08T02:29:43.493Z,99633.63
2022-12-08T02:32:28.690Z,99637.47
2022-12-08T02:35:14.729Z,99641.00
2022-12-08T02:37:50.596Z,99636.97
2022-12-08T02:40:31.977Z,99632.81
2022-12-08T02:43:28.386Z,99642.03
2022-12-08T02:46:02.323Z,99648.00
2022-12-08T02:48:30.642Z,99650.34
2022-12-08T02:51:00.492Z,99652.03
2022-12-08T02:53:32.421Z,99644.38
2022-12-08T02:56:14.078Z,99653.69
2022-12-08T02:59:12.793Z,99644.19
2022-12-08T03:02:13.645Z,99631.97
2022-12-08T03:05:02.475Z,99634.00
2022-12-08T03:07:30.131Z,99635.19
2022-12-08T03:10:10.073Z,99629.13
2022-12-08T03:12:46.776Z,99610.75
2022-12-08T03:15:19.125Z,99629.00
2022-12-08T03:17:51.473Z,99626.00
2022-12-08T03:20:25.379Z,99624.13
2022-12-08T03:22:58.887Z,99626.34
2022-12-08T03:25:30.523Z,99618.97
2022-12-08T03:28:06.752Z,99587.38
2022-12-08T03:30:38.897Z,99591.88
2022-12-08T03:33:30.117Z,99598.91
2022-12-08T03:35:59.770Z,99599.25
2022-12-08T03:38:36.794Z,99603.78
2022-12-08T03:41:19.720Z,99613.78
2022-12-08T03:43:59.565Z,99608.63
2022-12-08T03:48:57.640Z,99620.66
2022-12-08T03:51:27.398Z,99612.63
2022-12-08T03:53:55.227Z,99606.94
2022-12-08T03:56:29.955Z,99599.94
2022-12-08T03:58:57.915Z,99594.41
2022-12-08T04:01:25.652Z,99582.53
2022-12-08T04:03:53.942Z,99591.38
2022-12-08T04:06:21.872Z,99591.56
2022-12-08T04:08:50.408Z,99595.22
2022-12-08T04:11:18.326Z,99582.69
2022-12-08T04:13:46.194Z,99573.81
2022-12-08T04:16:17.243Z,99579.00
2022-12-08T04:18:45.218Z,99584.19
2022-12-08T04:21:12.843Z,99576.31
2022-12-08T04:23:40.916Z,99581.34
2022-12-08T04:26:08.513Z,99588.38
2022-12-08T04:28:36.736Z,99587.38
2022-12-08T04:31:05.764Z,99579.28
2022-12-08T04:33:35.530Z,99598.53
2022-12-08T04:36:04.973Z,99588.84
2022-12-08T04:38:34.186Z,99578.66
2022-12-08T04:41:02.202Z,99575.81
2022-12-08T04:43:30.362Z,99568.47
2022-12-08T04:45:57.998Z,99548.41
2022-12-08T04:48:25.917Z,99559.75
2022-12-08T04:50:53.317Z,99568.47
2022-12-08T04:53:21.532Z,99565.28
2022-12-08T04:55:49.763Z,99554.75
2022-12-08T04:58:20.611Z,99555.75
2022-12-08T05:00:48.403Z,99558.13
2022-12-08T05:03:17.287Z,99555.44
2022-12-08T05:05:45.149Z,99551.44
2022-12-08T05:08:12.772Z,99533.19
2022-12-08T05:10:40.586Z,99536.72
2022-12-08T05:13:08.766Z,99527.31
2022-12-08T05:15:36.339Z,99520.97
2022-12-08T05:18:06.862Z,99525.34
2022-12-08T05:20:34.718Z,99520.16
2022-12-08T05:23:02.863Z,99515.28
2022-12-08T05:25:30.120Z,99523.31
2022-12-08T05:28:17.736Z,99521.16
2022-12-08T05:30:44.894Z,99526.97
2022-12-08T05:33:13.510Z,99521.47
2022-12-08T05:35:41.070Z,99526.13
2022-12-08T05:38:11.379Z,99519.63
2022-12-08T05:40:43.586Z,99505.56
2022-12-08T05:43:11.514Z,99529.31
2022-12-08T05:45:39.124Z,99530.28
2022-12-08T05:48:06.806Z,99537.63
2022-12-08T05:50:34.106Z,99534.94
2022-12-08T05:53:05.008Z,99541.50
2022-12-08T05:55:32.252Z,99557.06
2022-12-08T05:58:03.156Z,99554.72
2022-12-08T06:00:35.176Z,99547.34
2022-12-08T06:03:02.967Z,99543.16
2022-12-08T06:05:32.145Z,99544.19
2022-12-08T06:07:59.761Z,99541.66
2022-12-08T06:10:28.227Z,99545.66
2022-12-08T06:12:55.814Z,99533.28
2022-12-08T06:15:23.747Z,99538.94
2022-12-08T06:17:51.400Z,99536.97
2022-12-08T06:20:18.956Z,99534.47
2022-12-08T06:22:46.625Z,99526.59
2022-12-08T06:25:13.822Z,99528.09
2022-12-08T06:27:41.334Z,99527.28
2022-12-08T06:30:08.950Z,99521.56
2022-12-08T06:32:37.434Z,99522.91
2022-12-08T06:35:04.998Z,99534.97
2022-12-08T06:37:32.785Z,99523.63
2022-12-08T06:40:00.114Z,99540.50
2022-12-08T06:42:46.772Z,99544.34
2022-12-08T06:45:16.451Z,99554.03
2022-12-08T06:47:45.223Z,99555.72
2022-12-08T06:50:14.335Z,99570.09
2022-12-08T06:52:53.262Z,99571.59
2022-12-08T06:58:15.022Z,99558.06
2022-12-08T07:00:42.514Z,99574.78
2022-12-08T07:03:15.390Z,99501.00
2022-12-08T07:05:44.904Z,99568.09
2022-12-08T07:08:12.725Z,99570.59
2022-12-08T07:10:40.018Z,99572.78
2022-12-08T07:13:09.672Z,99571.59
2022-12-08T07:15:37.032Z,99561.78
2022-12-08T07:18:06.856Z,99552.72
2022-12-08T07:20:34.398Z,99529.50
2022-12-08T07:23:02.205Z,99537.69
2022-12-08T07:25:29.660Z,99539.38
2022-12-08T07:27:57.278Z,99551.41
2022-12-08T07:30:25.250Z,99526.34
2022-12-08T07:32:54.233Z,99543.03
2022-12-08T07:35:22.959Z,99550.72
2022-12-08T07:37:50.615Z,99542.50
2022-12-08T07:40:18.213Z,99543.00
2022-12-08T07:43:04.789Z,99528.41
2022-12-08T07:45:32.108Z,99521.88
2022-12-08T07:47:59.747Z,99537.38
2022-12-08T07:50:27.165Z,99534.56
2022-12-08T07:52:57.572Z,99537.16
2022-12-08T07:55:26.558Z,99547.34
2022-12-08T07:57:54.030Z,99540.75
2022-12-08T08:00:23.150Z,99527.50
2022-12-08T08:02:51.155Z,99523.06
2022-12-08T08:05:20.784Z,99531.13
2022-12-08T08:07:53.368Z,99534.06
2022-12-08T08:10:22.902Z,99533.28
2022-12-08T08:12:51.631Z,99532.09
2022-12-08T08:15:25.299Z,99519.75
2022-12-08T08:17:52.885Z,99514.06
2022-12-08T08:20:21.570Z,99500.66
2022-12-08T08:23:17.256Z,99511.19
2022-12-08T08:25:44.449Z,99509.91
2022-12-08T08:28:11.941Z,99503.97
2022-12-08T08:30:39.348Z,99498.50
2022-12-08T08:33:06.962Z,99494.78
2022-12-08T08:35:34.991Z,99482.56
2022-12-08T08:38:02.524Z,99485.06
2022-12-08T08:40:30.040Z,99487.78
2022-12-08T08:43:01.466Z,99487.13
2022-12-08T08:45:33.049Z,99490.88
2022-12-08T08:48:30.202Z,99513.94
2022-12-08T08:50:59.101Z,99529.91
2022-12-08T08:53:26.713Z,99531.84
2022-12-08T08:55:53.903Z,99526.88
2022-12-08T08:58:21.504Z,99531.44
2022-12-08T09:00:48.725Z,99519.63
2022-12-08T09:03:19.677Z,99510.16
2022-12-08T09:05:47.024Z,99508.31
2022-12-08T09:08:14.676Z,99489.09
2022-12-08T09:10:42.850Z,99499.66
2022-12-08T09:13:10.362Z,99496.44
2022-12-08T09:15:38.127Z,99488.94
2022-12-08T09:18:08.415Z,99477.66
2022-12-08T09:20:36.303Z,99468.38
2022-12-08T09:23:04.428Z,99455.06
2022-12-08T09:25:31.732Z,99459.09
2022-12-08T09:27:59.342Z,99454.13
2022-12-08T09:30:26.521Z,99448.44
2022-12-08T09:32:54.215Z,99419.00
2022-12-08T09:35:21.544Z,99432.66
2022-12-08T09:37:49.086Z,99422.06
2022-12-08T09:40:20.342Z,99428.47
2022-12-08T09:42:55.877Z,99418.34
2022-12-08T09:45:26.813Z,99405.88
2022-12-08T09:47:59.183Z,99394.53
2022-12-08T09:50:50.138Z,99398.19
2022-12-08T09:53:35.853Z,99381.13
2022-12-08T09:56:14.464Z,99377.69
2022-12-08T09:59:01.919Z,99384.75
2022-12-08T10:01:32.430Z,99387.88
2022-12-08T10:04:01.005Z,99376.22
2022-12-08T10:06:39.984Z,99378.13
2022-12-08T10:09:27.700Z,99348.53
2022-12-08T10:12:00.443Z,99358.19
2022-12-08T10:15:04.891Z,99362.75
2022-12-08T10:17:44.693Z,99354.75
2022-12-08T10:20:17.050Z,99361.69
2022-12-08T10:22:50.956Z,99363.75
2022-12-08T10:25:37.251Z,99385.59
2022-12-08T10:28:04.725Z,99377.25
2022-12-08T10:30:33.567Z,99363.09
2022-12-08T10:33:00.829Z,99368.84
2022-12-08T10:35:47.425Z,99361.03
2022-12-08T10:38:35.108Z,99370.56
2022-12-08T10:41:13.691Z,99379.75
2022-12-08T10:43:59.044Z,99348.09
2022-12-08T10:46:28.843Z,99309.44
2022-12-08T10:48:57.280Z,99304.34
2022-12-08T10:51:27.971Z,99298.59
2022-12-08T10:53:55.679Z,99304.16
2022-12-08T10:56:27.853Z,99306.00
2022-12-08T10:59:15.196Z,99315.44
2022-12-08T11:01:47.545Z,99318.22
2022-12-08T11:04:39.992Z,99303.03
2022-12-08T11:07:11.648Z,99309.88
2022-12-08T11:09:48.823Z,99312.31
2022-12-08T11:12:20.987Z,99295.81
2022-12-08T11:15:03.138Z,99290.66
2022-12-08T11:17:41.319Z,99308.50
2022-12-08T11:20:11.838Z,99299.16
2022-12-08T11:22:41.239Z,99295.53
2022-12-08T11:25:08.441Z,99290.75
2022-12-08T11:27:38.505Z,99292.56
2022-12-08T11:30:18.679Z,99287.88
2022-12-08T11:32:50.605Z,99283.13
2022-12-08T11:35:23.813Z,99268.06
2022-12-08T11:37:51.678Z,99254.38
2022-12-08T11:40:38.627Z,99261.84
2022-12-08T11:43:16.846Z,99257.59
2022-12-08T11:45:44.343Z,99247.41
2022-12-08T11:48:19.663Z,99237.19
2022-12-08T11:50:54.776Z,99239.69
2022-12-08T11:53:27.991Z,99239.31
2022-12-08T11:56:05.297Z,99242.09
2022-12-08T11:58:57.678Z,99222.28
2022-12-08T12:01:26.727Z,99240.28
2022-12-08T12:04:17.291Z,99238.66
2022-12-08T12:06:54.776Z,99240.22
2022-12-08T12:09:30.674Z,99241.63
2022-12-08T12:12:44.153Z,99242.28
2022-12-08T12:15:36.215Z,99248.47
2022-12-08T12:18:16.504Z,99242.28
2022-12-08T12:20:58.140Z,99244.03
2022-12-08T12:23:31.485Z,99235.22
2022-12-08T12:26:02.620Z,99233.44
2022-12-08T12:28:49.899Z,99236.13
2022-12-08T12:31:22.011Z,99227.69
2022-12-08T12:33:51.296Z,99230.06
2022-12-08T12:36:19.064Z,99226.16
2022-12-08T12:39:04.285Z,99211.72
2022-12-08T12:42:00.873Z,99234.59
2022-12-08T12:44:28.328Z,99247.13
2022-12-08T12:46:59.137Z,99258.06
2022-12-08T12:49:46.150Z,99241.94
2022-12-08T12:52:16.474Z,99247.00
2022-12-08T12:55:03.824Z,99240.34
2022-12-08T12:57:39.980Z,99235.81
2022-12-08T13:00:19.012Z,99240.78
2022-12-08T13:02:49.302Z,99242.88
2022-12-08T13:05:21.404Z,99222.59
2022-12-08T13:08:10.071Z,99213.41
2022-12-08T13:11:00.895Z,99210.38
2022-12-08T13:13:29.267Z,99201.59
2022-12-08T13:15:59.099Z,99196.22
2022-12-08T13:18:40.704Z,99191.72
2022-12-08T13:21:10.263Z,99190.50
2022-12-08T13:24:14.495Z,99200.91
2022-12-08T13:26:45.954Z,99219.72
2022-12-08T13:29:20.371Z,99222.94
2022-12-08T13:31:51.226Z,99218.28
2022-12-08T13:34:21.228Z,99204.47
2022-12-08T13:36:55.540Z,99217.13
2022-12-08T13:39:58.080Z,99228.56
2022-12-08T13:42:42.527Z,99235.22
2022-12-08T13:45:39.793Z,99239.56
2022-12-08T13:48:41.672Z,99240.06
2022-12-08T13:53:34.168Z,99224.34
2022-12-08T13:57:11.650Z,99206.88
2022-12-08T13:59:45.487Z,99209.00
2022-12-08T14:02:38.632Z,99207.31
2022-12-08T14:05:17.993Z,99197.34
2022-12-08T14:07:49.341Z,99190.34
2022-12-08T14:10:28.515Z,99197.03
2022-12-08T14:13:00.684Z,99189.38
2022-12-08T14:15:32.681Z,99188.09
2022-12-08T14:18:04.723Z,99198.59
2022-12-08T14:20:46.801Z,99213.56
2022-12-08T14:23:21.949Z,99200.38
2022-12-08T14:25:49.254Z,99206.34
2022-12-08T14:28:16.949Z,99205.75
2022-12-08T14:30:44.646Z,99207.78
2022-12-08T14:33:19.670Z,99222.09
2022-12-08T14:35:56.309Z,99230.63
2022-12-08T14:38:26.364Z,99237.47
2022-12-08T14:41:06.293Z,99237.22
2022-12-08T14:43:34.119Z,99255.81
2022-12-08T14:46:05.251Z,99258.88
2022-12-08T14:48:38.596Z,99267.44
2022-12-08T14:51:21.440Z,99277.81
2022-12-08T14:54:01.113Z,99283.59
2022-12-08T14:56:50.425Z,99283.59
2022-12-08T14:59:27.724Z,99265.00
2022-12-08T15:02:27.225Z,99243.25
2022-12-08T15:04:57.680Z,99248.13
2022-12-08T15:07:48.815Z,99241.25
2022-12-08T15:10:16.346Z,99228.16
2022-12-08T15:12:58.545Z,99228.81
2022-12-08T15:15:27.398Z,99227.59
2022-12-08T15:18:13.046Z,99221.78
2022-12-08T15:21:01.490Z,99208.53
2022-12-08T15:23:38.529Z,99209.91
2022-12-08T15:26:06.247Z,99204.38
2022-12-08T15:28:33.458Z,99191.66
2022-12-08T15:31:01.112Z,99193.50
2022-12-08T15:33:28.652Z,99193.41
2022-12-08T15:35:56.284Z,99189.91
2022-12-08T15:38:31.118Z,99213.28
2022-12-08T15:40:58.912Z,99189.63
2022-12-08T15:43:26.358Z,99205.41
2022-12-08T15:45:59.435Z,99189.44
2022-12-08T15:48:30.024Z,99212.06
2022-12-08T15:50:58.011Z,99214.19
2022-12-08T15:53:25.300Z,99214.00
2022-12-08T15:56:25.733Z,99210.84
2022-12-08T15:58:57.043Z,99217.25
2022-12-08T16:01:26.158Z,99204.16
2022-12-08T16:07:19.713Z,99224.09
2022-12-08T16:09:40.899Z,99231.94
2022-12-08T16:13:48.343Z,99233.19
2022-12-08T16:15:51.662Z,99242.75
2022-12-08T16:18:29.642Z,99240.22
2022-12-08T16:21:31.514Z,99238.81
2022-12-08T16:23:45.773Z,99237.16
2022-12-08T16:29:07.298Z,99234.97
2022-12-08T16:31:34.807Z,99240.59
2022-12-08T16:34:02.490Z,99224.03
2022-12-08T16:36:29.738Z,99220.13
2022-12-08T16:38:57.227Z,99217.91
2022-12-08T16:41:42.972Z,99230.88
2022-12-08T16:44:11.395Z,99218.28
2022-12-08T16:46:39.279Z,99235.50
2022-12-08T16:49:09.208Z,99239.84
2022-12-08T16:51:36.470Z,99239.78
2022-12-08T16:54:04.032Z,99231.94
2022-12-08T16:56:33.413Z,99234.78
2022-12-08T16:59:02.075Z,99242.84
2022-12-08T17:01:29.870Z,99248.47
2022-12-08T17:06:45.015Z,99216.81
2022-12-08T17:09:12.780Z,99237.59
2022-12-08T17:11:43.455Z,99242.16
2022-12-08T17:14:13.142Z,99251.34
2022-12-08T17:16:41.363Z,99256.34
2022-12-08T17:19:09.644Z,99266.72
2022-12-08T17:21:36.880Z,99261.34
2022-12-08T17:24:05.089Z,99272.09
2022-12-08T17:26:32.453Z,99268.75
2022-12-08T17:29:02.322Z,99263.78
2022-12-08T17:31:32.052Z,99275.53
2022-12-08T17:34:05.297Z,99276.94
2022-12-08T17:36:32.570Z,99283.16
2022-12-08T17:39:01.234Z,99285.00
2022-12-08T17:41:29.623Z,99286.16
2022-12-08T17:43:57.830Z,99278.78
2022-12-08T17:46:25.424Z,99275.25
2022-12-08T17:48:53.709Z,99279.53
2022-12-08T17:51:21.269Z,99273.91
2022-12-08T17:53:48.981Z,99276.16
2022-12-08T17:56:20.298Z,99276.91
2022-12-08T17:58:54.350Z,99282.16
2022-12-08T18:01:23.726Z,99285.84
2022-12-08T18:03:51.759Z,99286.91
2022-12-08T18:06:19.044Z,99295.56
2022-12-08T18:08:46.985Z,99299.66
2022-12-08T18:11:17.568Z,99305.03
2022-12-08T18:13:45.758Z,99298.38
2022-12-08T18:16:13.789Z,99295.22
2022-12-08T18:18:41.738Z,99291.13
2022-12-08T18:21:09.863Z,99292.72
2022-12-08T18:23:57.896Z,99288.28
2022-12-08T18:26:26.785Z,99297.75
2022-12-08T18:28:54.545Z,99299.59
2022-12-08T18:31:24.419Z,99288.50
2022-12-08T18:33:52.742Z,99307.66
2022-12-08T18:36:24.319Z,99299.78
2022-12-08T18:38:53.149Z,99286.84
2022-12-08T18:41:26.289Z,99306.03
2022-12-08T18:43:55.746Z,99301.72
2022-12-08T18:46:24.270Z,99308.53
2022-12-08T18:48:52.422Z,99315.03
2022-12-08T18:51:22.542Z,99317.97
2022-12-08T18:53:50.801Z,99311.38
2022-12-08T18:56:28.741Z,99308.69
2022-12-08T18:59:02.864Z,99316.31
2022-12-08T19:01:32.622Z,99301.09
2022-12-08T19:06:51.878Z,99324.34
2022-12-08T19:09:20.357Z,99322.31
2022-12-08T19:11:47.731Z,99315.31
2022-12-08T19:14:22.616Z,99327.72
2022-12-08T19:16:53.503Z,99331.88
2022-12-08T19:19:22.094Z,99341.34
2022-12-08T19:21:49.287Z,99338.66
2022-12-08T19:24:19.258Z,99326.72
2022-12-08T19:26:47.459Z,99334.69
2022-12-08T19:29:15.108Z,99329.78
2022-12-08T19:31:42.981Z,99322.28
2022-12-08T19:34:15.075Z,99314.22
2022-12-08T19:36:43.120Z,99307.56
2022-12-08T19:39:34.297Z,99309.06
2022-12-08T19:42:22.324Z,99317.94
2022-12-08T19:44:52.693Z,99310.25
2022-12-08T19:47:26.274Z,99306.19
2022-12-08T19:50:15.225Z,99307.38
2022-12-08T19:52:43.129Z,99308.19
2022-12-08T19:55:11.844Z,99304.78
2022-12-08T19:57:39.505Z,99307.09
2022-12-08T20:00:10.351Z,99300.19
2022-12-08T20:02:39.314Z,99291.84
2022-12-08T20:05:08.378Z,99291.75
2022-12-08T20:07:36.509Z,99296.03
2022-12-08T20:10:09.466Z,99305.38
2022-12-08T20:12:37.781Z,99303.22
2022-12-08T20:15:06.485Z,99309.16
2022-12-08T20:17:38.679Z,99311.63
2022-12-08T20:20:12.372Z,99319.19
2022-12-08T20:22:40.464Z,99311.53
2022-12-08T20:25:13.261Z,99320.75
2022-12-08T20:27:41.572Z,99326.22
2022-12-08T20:30:14.961Z,99323.38
2022-12-08T20:32:45.648Z,99323.25
2022-12-08T20:35:13.360Z,99305.38
2022-12-08T20:37:41.373Z,99336.13
2022-12-08T20:40:11.501Z,99319.56
2022-12-08T20:42:58.099Z,99324.09
2022-12-08T20:45:28.131Z,99351.47
2022-12-08T20:47:56.082Z,99354.16
2022-12-08T20:50:24.506Z,99347.41
2022-12-08T20:52:55.377Z,99351.09
2022-12-08T20:55:23.941Z,99348.63
2022-12-08T20:57:52.027Z,99346.97
2022-12-08T21:00:24.368Z,99345.66
2022-12-08T21:02:56.563Z,99350.94
2022-12-08T21:05:25.486Z,99351.44
2022-12-08T21:07:53.597Z,99354.41
2022-12-08T21:10:21.906Z,99354.75
2022-12-08T21:12:49.742Z,99353.72
2022-12-08T21:15:18.295Z,99352.81
2022-12-08T21:17:46.524Z,99334.25
2022-12-08T21:20:15.402Z,99355.44
2022-12-08T21:22:44.102Z,99362.09
2022-12-08T21:25:12.681Z,99366.28
2022-12-08T21:27:42.036Z,99368.94
2022-12-08T21:30:11.241Z,99355.44
2022-12-08T21:32:39.699Z,99368.31
2022-12-08T21:35:08.062Z,99372.16
2022-12-08T21:37:35.780Z,99377.41
2022-12-08T21:40:08.433Z,99376.63
2022-12-08T21:42:45.571Z,99354.47
2022-12-08T21:45:17.273Z,99343.00
2022-12-08T21:47:46.332Z,99359.13
2022-12-08T21:50:16.454Z,99370.41
2022-12-08T21:52:45.819Z,99366.78
2022-12-08T21:55:15.047Z,99360.94
2022-12-08T21:57:42.890Z,99344.03
2022-12-08T22:00:15.359Z,99347.19
2022-12-08T22:02:43.808Z,99352.66
2022-12-08T22:05:13.055Z,99360.88
2022-12-08T22:07:41.360Z,99366.63
2022-12-08T22:10:10.509Z,99354.19
2022-12-08T22:12:38.614Z,99349.97
2022-12-08T22:15:08.044Z,99344.56
2022-12-08T22:17:44.539Z,99349.94
2022-12-08T22:20:15.489Z,99345.19
2022-12-08T22:22:44.332Z,99354.75
2022-12-08T22:25:12.573Z,99354.63
2022-12-08T22:27:40.665Z,99357.22
2022-12-08T22:30:11.046Z,99353.53
2022-12-08T22:32:39.314Z,99355.56
2022-12-08T22:35:08.773Z,99355.56
2022-12-08T22:37:36.288Z,99349.00
2022-12-08T22:40:12.270Z,99355.41
2022-12-08T22:42:41.226Z,99333.91
2022-12-08T22:45:10.926Z,99339.72
2022-12-08T22:47:38.355Z,99342.03
2022-12-08T22:50:07.091Z,99347.69
2022-12-08T22:52:35.225Z,99341.88
2022-12-08T22:55:04.307Z,99337.63
2022-12-08T22:57:31.891Z,99326.03
2022-12-08T22:59:59.537Z,99311.41
2022-12-08T23:02:27.878Z,99323.34
2022-12-08T23:04:57.114Z,99335.63
2022-12-08T23:07:25.165Z,99337.59
2022-12-08T23:09:52.822Z,99321.47
2022-12-08T23:12:24.652Z,99338.09
2022-12-08T23:14:53.179Z,99323.00
2022-12-08T23:17:22.126Z,99345.28
2022-12-08T23:19:54.277Z,99336.41
2022-12-08T23:22:23.007Z,99339.34
2022-12-08T23:24:50.729Z,99329.34
2022-12-08T23:27:18.408Z,99324.91
2022-12-08T23:29:52.440Z,99333.44
2022-12-08T23:32:20.275Z,99310.41
2022-12-08T23:34:47.968Z,99325.56
2022-12-08T23:37:17.086Z,99324.19
2022-12-08T23:39:45.125Z,99328.78
2022-12-08T23:42:12.855Z,99306.66
2022-12-08T23:44:40.987Z,99316.59
2022-12-08T23:47:10.899Z,99311.69
2022-12-08T23:49:38.495Z,99315.44
2022-12-08T23:52:05.963Z,99307.25
2022-12-08T23:54:33.934Z,99311.34
2022-12-08T23:57:01.466Z,99317.13
2022-12-08T23:59:31.033Z,99303.28
